createdAt,value
2018-01-17T00:01:10.240Z,94057.66
2018-01-17T00:03:37.895Z,94039.16
2018-01-17T00:06:05.387Z,94047.44
2018-01-17T00:08:32.782Z,94037.14
2018-01-17T00:11:00.211Z,94035.14
2018-01-17T00:13:27.613Z,94051.67
2018-01-17T00:15:55.138Z,94037.78
2018-01-17T00:18:22.688Z,94023.28
2018-01-17T00:20:50.091Z,94027.78
2018-01-17T00:23:17.547Z,94040.59
2018-01-17T00:25:44.978Z,94036.41
2018-01-17T00:28:12.334Z,94024.41
2018-01-17T00:30:39.830Z,94038.02
2018-01-17T00:33:07.422Z,94042.34
2018-01-17T00:35:34.891Z,94027.16
2018-01-17T00:38:02.355Z,94036.19
2018-01-17T00:40:29.827Z,94031.39
2018-01-17T00:42:57.251Z,94011.98
2018-01-17T00:45:24.801Z,94017.56
2018-01-17T00:47:52.226Z,94011.66
2018-01-17T00:50:19.608Z,94008.45
2018-01-17T00:52:46.979Z,93983.33
2018-01-17T00:55:15.118Z,93981.98
2018-01-17T00:57:42.537Z,93987.96
2018-01-17T01:00:09.986Z,93985.72
2018-01-17T01:02:37.524Z,93985.80
2018-01-17T01:05:05.270Z,93981.06
2018-01-17T01:07:32.735Z,93993.45
2018-01-17T01:10:00.139Z,93980.84
2018-01-17T01:12:27.535Z,93987.07
2018-01-17T01:14:54.980Z,93980.41
2018-01-17T01:17:22.361Z,93966.96
2018-01-17T01:19:49.878Z,93945.10
2018-01-17T01:22:18.175Z,93958.39
2018-01-17T01:24:45.735Z,93984.32
2018-01-17T01:27:13.291Z,93951.92
2018-01-17T01:29:40.773Z,93965.64
2018-01-17T01:32:08.140Z,93956.56
2018-01-17T01:34:35.539Z,93964.89
2018-01-17T01:37:02.991Z,93954.72
2018-01-17T01:39:30.367Z,93947.94
2018-01-17T01:41:57.728Z,93926.83
2018-01-17T01:44:25.179Z,93931.09
2018-01-17T01:46:52.571Z,93925.70
2018-01-17T01:49:20.015Z,93896.91
2018-01-17T01:51:47.922Z,93914.45
2018-01-17T01:54:15.318Z,93924.94
2018-01-17T01:56:42.747Z,93920.63
2018-01-17T01:59:10.191Z,93927.05
2018-01-17T02:01:37.568Z,93926.59
2018-01-17T02:04:05.018Z,93910.14
2018-01-17T02:06:32.385Z,93923.36
2018-01-17T02:08:59.750Z,93919.39
2018-01-17T02:11:27.150Z,93922.14
2018-01-17T02:13:54.576Z,93942.33
2018-01-17T02:16:21.981Z,93946.28
2018-01-17T02:18:49.345Z,93941.30
2018-01-17T02:21:16.746Z,93937.20
2018-01-17T02:23:44.654Z,93915.46
2018-01-17T02:26:12.478Z,93942.06
2018-01-17T02:28:39.842Z,93918.50
2018-01-17T02:31:07.263Z,93894.05
2018-01-17T02:33:34.635Z,93923.95
2018-01-17T02:36:02.112Z,93912.02
2018-01-17T02:38:29.642Z,93884.63
2018-01-17T02:40:57.349Z,93867.34
2018-01-17T02:43:24.839Z,93871.84
2018-01-17T02:45:52.225Z,93863.61
2018-01-17T02:48:19.581Z,93857.41
2018-01-17T02:50:47.035Z,93860.51
2018-01-17T02:53:14.637Z,93848.78
2018-01-17T02:55:42.116Z,93832.58
2018-01-17T02:58:09.979Z,93837.48
2018-01-17T03:00:37.327Z,93833.88
2018-01-17T03:03:04.725Z,93805.36
2018-01-17T03:05:32.130Z,93813.53
2018-01-17T03:07:59.956Z,93813.00
2018-01-17T03:10:27.869Z,93828.25
2018-01-17T03:12:55.301Z,93794.38
2018-01-17T03:15:22.739Z,93785.80
2018-01-17T03:17:50.204Z,93801.15
2018-01-17T03:20:17.658Z,93811.80
2018-01-17T03:22:45.317Z,93828.38
2018-01-17T03:25:13.285Z,93800.83
2018-01-17T03:27:42.218Z,93813.81
2018-01-17T03:30:09.988Z,93828.73
2018-01-17T03:32:37.379Z,93824.70
2018-01-17T03:35:04.775Z,93825.58
2018-01-17T03:37:32.147Z,93819.80
2018-01-17T03:39:59.581Z,93826.02
2018-01-17T03:42:26.955Z,93806.30
2018-01-17T03:44:54.337Z,93820.02
2018-01-17T03:47:21.774Z,93829.16
2018-01-17T03:49:49.186Z,93827.31
2018-01-17T03:52:16.628Z,93813.28
2018-01-17T03:54:44.148Z,93797.88
2018-01-17T03:57:12.490Z,93824.08
2018-01-17T03:59:39.864Z,93786.27
2018-01-17T04:02:07.306Z,93781.84
2018-01-17T04:04:34.674Z,93825.39
2018-01-17T04:07:02.188Z,93807.25
2018-01-17T04:09:29.604Z,93818.20
2018-01-17T04:11:57.174Z,93769.92
2018-01-17T04:14:24.765Z,93780.27
2018-01-17T04:16:52.260Z,93800.08
2018-01-17T04:19:19.862Z,93803.63
2018-01-17T04:21:47.344Z,93814.36
2018-01-17T04:24:14.731Z,93829.52
2018-01-17T04:26:42.178Z,93779.16
2018-01-17T04:29:09.545Z,93775.33
2018-01-17T04:31:37.031Z,93776.20
2018-01-17T04:34:04.458Z,93785.86
2018-01-17T04:36:31.894Z,93785.67
2018-01-17T04:38:59.283Z,93787.30
2018-01-17T04:41:26.749Z,93755.88
2018-01-17T04:43:54.143Z,93784.62
2018-01-17T04:46:21.642Z,93773.00
2018-01-17T04:48:49.029Z,93761.02
2018-01-17T04:51:16.914Z,93761.55
2018-01-17T04:53:44.409Z,93767.03
2018-01-17T04:56:11.918Z,93767.38
2018-01-17T04:58:39.437Z,93752.27
2018-01-17T05:01:06.868Z,93747.58
2018-01-17T05:03:34.287Z,93739.66
2018-01-17T05:06:01.942Z,93750.71
2018-01-17T05:08:29.576Z,93749.69
2018-01-17T05:10:57.088Z,93732.77
2018-01-17T05:13:24.563Z,93728.41
2018-01-17T05:15:51.976Z,93741.20
2018-01-17T05:18:19.441Z,93744.98
2018-01-17T05:20:46.837Z,93747.73
2018-01-17T05:23:15.833Z,93716.79
2018-01-17T05:25:43.413Z,93716.11
2018-01-17T05:28:10.821Z,93733.08
2018-01-17T05:30:38.411Z,93717.44
2018-01-17T05:33:05.852Z,93696.58
2018-01-17T05:35:33.429Z,93706.71
2018-01-17T05:38:00.849Z,93704.09
2018-01-17T05:40:28.403Z,93703.75
2018-01-17T05:42:55.821Z,93669.07
2018-01-17T05:45:23.229Z,93692.98
2018-01-17T05:47:50.680Z,93696.38
2018-01-17T05:50:18.433Z,93672.36
2018-01-17T05:52:45.933Z,93687.55
2018-01-17T05:55:13.366Z,93666.45
2018-01-17T05:57:41.058Z,93686.13
2018-01-17T06:00:08.534Z,93687.88
2018-01-17T06:02:36.062Z,93665.95
2018-01-17T06:05:03.613Z,93667.68
2018-01-17T06:07:31.025Z,93679.62
2018-01-17T06:09:58.481Z,93681.03
2018-01-17T06:12:26.028Z,93687.63
2018-01-17T06:14:53.439Z,93681.50
2018-01-17T06:17:20.876Z,93684.39
2018-01-17T06:19:48.331Z,93691.16
2018-01-17T06:22:15.789Z,93693.42
2018-01-17T06:24:43.356Z,93699.90
2018-01-17T06:27:11.150Z,93694.05
2018-01-17T06:29:38.583Z,93681.28
2018-01-17T06:32:06.667Z,93705.77
2018-01-17T06:34:34.246Z,93698.00
2018-01-17T06:37:01.799Z,93707.19
2018-01-17T06:39:29.343Z,93712.50
2018-01-17T06:41:56.840Z,93672.88
2018-01-17T06:44:24.218Z,93682.35
2018-01-17T06:46:51.705Z,93674.58
2018-01-17T06:49:19.115Z,93658.91
2018-01-17T06:51:46.675Z,93710.60
2018-01-17T06:54:14.380Z,93692.55
2018-01-17T06:56:42.053Z,93669.75
2018-01-17T06:59:09.646Z,93670.15
2018-01-17T07:01:39.406Z,93683.37
2018-01-17T07:04:07.043Z,93682.33
2018-01-17T07:06:34.493Z,93645.45
2018-01-17T07:09:02.827Z,93665.29
2018-01-17T07:11:30.363Z,93659.19
2018-01-17T07:13:57.874Z,93664.63
2018-01-17T07:16:25.862Z,93656.05
2018-01-17T07:18:53.348Z,93659.08
2018-01-17T07:21:21.072Z,93642.78
2018-01-17T07:23:48.610Z,93665.22
2018-01-17T07:26:16.093Z,93652.24
2018-01-17T07:28:43.854Z,93639.97
2018-01-17T07:31:11.410Z,93630.25
2018-01-17T07:33:39.044Z,93633.05
2018-01-17T07:36:08.543Z,93601.05
2018-01-17T07:38:39.414Z,93620.11
2018-01-17T07:41:06.994Z,93609.88
2018-01-17T07:43:35.529Z,93611.09
2018-01-17T07:46:03.522Z,93609.42
2018-01-17T07:48:34.214Z,93595.23
2018-01-17T07:51:01.892Z,93574.17
2018-01-17T07:53:34.395Z,93570.25
2018-01-17T07:56:02.040Z,93572.24
2018-01-17T07:58:30.174Z,93563.87
2018-01-17T08:00:58.374Z,93553.08
2018-01-17T08:03:26.467Z,93558.39
2018-01-17T08:05:54.220Z,93542.87
2018-01-17T08:08:25.747Z,93544.80
2018-01-17T08:10:55.022Z,93526.52
2018-01-17T08:13:23.179Z,93538.16
2018-01-17T08:15:50.931Z,93530.42
2018-01-17T08:18:18.754Z,93520.50
2018-01-17T08:20:46.346Z,93522.16
2018-01-17T08:23:14.072Z,93525.01
2018-01-17T08:25:41.672Z,93531.03
2018-01-17T08:28:10.586Z,93516.96
2018-01-17T08:30:38.152Z,93493.28
2018-01-17T08:33:06.723Z,93495.39
2018-01-17T08:35:36.512Z,93499.85
2018-01-17T08:38:04.379Z,93477.14
2018-01-17T08:40:33.381Z,93486.94
2018-01-17T08:43:00.995Z,93462.69
2018-01-17T08:45:28.480Z,93456.23
2018-01-17T08:47:55.964Z,93448.33
2018-01-17T08:50:26.306Z,93468.48
2018-01-17T08:52:54.144Z,93464.29
2018-01-17T08:55:23.105Z,93438.09
2018-01-17T08:57:50.939Z,93439.61
2018-01-17T09:00:19.654Z,93443.33
2018-01-17T09:02:48.559Z,93403.66
2018-01-17T09:05:19.881Z,93419.14
2018-01-17T09:07:47.852Z,93389.73
2018-01-17T09:10:19.271Z,93403.45
2018-01-17T09:12:49.099Z,93367.08
2018-01-17T09:15:18.742Z,93380.20
2018-01-17T09:17:47.652Z,93396.88
2018-01-17T09:20:16.360Z,93387.39
2018-01-17T09:22:44.354Z,93329.32
2018-01-17T09:25:12.288Z,93328.27
2018-01-17T09:27:39.962Z,93367.26
2018-01-17T09:30:07.934Z,93341.20
2018-01-17T09:32:35.910Z,93356.70
2018-01-17T09:35:04.997Z,93315.97
2018-01-17T09:37:37.972Z,93350.13
2018-01-17T09:40:05.872Z,93322.60
2018-01-17T09:42:39.653Z,93307.69
2018-01-17T09:45:08.871Z,93313.82
2018-01-17T09:47:38.536Z,93317.29
2018-01-17T09:50:08.815Z,93290.36
2018-01-17T09:52:36.469Z,93298.79
2018-01-17T09:55:04.183Z,93285.04
2018-01-17T09:57:31.705Z,93274.08
2018-01-17T09:59:59.395Z,93271.20
2018-01-17T10:02:26.975Z,93249.52
2018-01-17T10:05:00.115Z,93263.80
2018-01-17T10:07:30.585Z,93257.48
2018-01-17T10:10:01.440Z,93233.75
2018-01-17T10:12:29.186Z,93227.22
2018-01-17T10:14:56.871Z,93214.83
2018-01-17T10:17:28.011Z,93200.17
2018-01-17T10:19:55.878Z,93192.91
2018-01-17T10:22:23.673Z,93170.94
2018-01-17T10:24:52.352Z,93168.29
2018-01-17T10:27:20.118Z,93147.91
2018-01-17T10:29:47.795Z,93136.56
2018-01-17T10:35:11.593Z,93117.63
2018-01-17T10:40:32.264Z,93112.32
2018-01-17T10:43:00.988Z,93102.91
2018-01-17T10:48:21.444Z,93077.23
2018-01-17T10:50:49.136Z,93077.65
2018-01-17T10:53:16.815Z,93061.96
2018-01-17T10:55:44.328Z,93058.02
2018-01-17T10:58:11.991Z,93056.66
2018-01-17T11:00:39.814Z,93057.22
2018-01-17T11:03:08.221Z,93026.64
2018-01-17T11:05:35.865Z,93047.68
2018-01-17T11:08:12.134Z,93037.67
2018-01-17T11:10:41.046Z,93018.42
2018-01-17T11:13:09.723Z,93010.83
2018-01-17T11:15:38.123Z,92993.67
2018-01-17T11:18:07.073Z,92992.83
2018-01-17T11:20:36.047Z,92989.22
2018-01-17T11:23:03.587Z,92974.78
2018-01-17T11:25:34.889Z,92959.00
2018-01-17T11:28:03.107Z,92946.22
2018-01-17T11:33:26.915Z,92956.66
2018-01-17T11:35:55.577Z,92942.73
2018-01-17T11:38:23.189Z,92933.88
2018-01-17T11:40:53.615Z,92936.70
2018-01-17T11:43:24.291Z,92919.55
2018-01-17T11:45:53.482Z,92911.80
2018-01-17T11:48:24.735Z,92917.48
2018-01-17T11:50:55.412Z,92894.66
2018-01-17T11:53:23.123Z,92872.80
2018-01-17T11:55:53.349Z,92891.17
2018-01-17T11:58:21.357Z,92906.72
2018-01-17T12:00:50.190Z,92888.88
2018-01-17T12:03:26.718Z,92864.34
2018-01-17T12:05:57.883Z,92886.72
2018-01-17T12:08:26.554Z,92880.01
2018-01-17T12:10:56.467Z,92888.47
2018-01-17T12:13:26.076Z,92882.16
2018-01-17T12:15:53.906Z,92885.97
2018-01-17T12:18:23.524Z,92870.58
2018-01-17T12:20:52.690Z,92860.61
2018-01-17T12:23:24.008Z,92837.47
2018-01-17T12:25:51.764Z,92857.98
2018-01-17T12:28:21.701Z,92869.16
2018-01-17T12:33:32.165Z,92842.70
2018-01-17T12:36:02.935Z,92816.51
2018-01-17T12:38:31.775Z,92811.22
2018-01-17T12:40:59.894Z,92820.75
2018-01-17T12:43:27.561Z,92812.43
2018-01-17T12:45:55.183Z,92793.45
2018-01-17T12:48:23.992Z,92785.88
2018-01-17T12:50:51.565Z,92798.91
2018-01-17T12:53:19.965Z,92784.79
2018-01-17T12:55:49.889Z,92776.84
2018-01-17T12:58:19.798Z,92760.41
2018-01-17T13:00:49.533Z,92741.31
2018-01-17T13:03:17.866Z,92758.92
2018-01-17T13:05:46.793Z,92744.20
2018-01-17T13:08:16.855Z,92729.50
2018-01-17T13:10:44.922Z,92731.69
2018-01-17T13:13:15.845Z,92705.30
2018-01-17T13:15:44.128Z,92718.72
2018-01-17T13:18:14.352Z,92713.16
2018-01-17T13:20:42.169Z,92689.78
2018-01-17T13:23:09.970Z,92710.03
2018-01-17T13:25:38.834Z,92725.63
2018-01-17T13:28:09.200Z,92721.48
2018-01-17T13:30:37.330Z,92697.52
2018-01-17T13:33:05.048Z,92711.45
2018-01-17T13:35:33.728Z,92695.04
2018-01-17T13:38:06.197Z,92694.56
2018-01-17T13:40:33.972Z,92702.34
2018-01-17T13:43:04.999Z,92690.84
2018-01-17T13:45:36.885Z,92682.20
2018-01-17T13:48:04.935Z,92662.70
2018-01-17T13:50:35.655Z,92683.23
2018-01-17T13:53:09.177Z,92683.47
2018-01-17T13:55:37.107Z,92649.80
2018-01-17T13:58:05.566Z,92646.31
2018-01-17T14:00:33.454Z,92643.73
2018-01-17T14:03:06.182Z,92643.00
2018-01-17T14:05:35.683Z,92633.41
2018-01-17T14:08:03.587Z,92616.66
2018-01-17T14:10:39.437Z,92633.23
2018-01-17T14:13:07.090Z,92622.96
2018-01-17T14:15:37.846Z,92609.70
2018-01-17T14:18:09.453Z,92622.63
2018-01-17T14:20:38.299Z,92611.19
2018-01-17T14:23:13.365Z,92608.58
2018-01-17T14:25:43.961Z,92590.72
2018-01-17T14:28:15.867Z,92580.45
2018-01-17T14:30:44.041Z,92580.09
2018-01-17T14:33:13.391Z,92579.74
2018-01-17T14:35:49.614Z,92565.02
2018-01-17T14:38:17.627Z,92571.03
2018-01-17T14:43:19.006Z,92569.80
2018-01-17T14:45:47.258Z,92571.84
2018-01-17T14:48:14.775Z,92548.33
2018-01-17T14:50:42.412Z,92543.13
2018-01-17T14:53:09.863Z,92545.14
2018-01-17T14:55:37.301Z,92541.91
2018-01-17T14:58:04.965Z,92562.52
2018-01-17T15:00:32.489Z,92556.80
2018-01-17T15:03:00.285Z,92550.20
2018-01-17T15:05:28.544Z,92553.17
2018-01-17T15:07:56.559Z,92520.44
2018-01-17T15:10:24.295Z,92550.86
2018-01-17T15:12:51.859Z,92544.34
2018-01-17T15:15:20.005Z,92528.16
2018-01-17T15:17:47.608Z,92542.80
2018-01-17T15:20:15.201Z,92537.42
2018-01-17T15:22:44.459Z,92535.64
2018-01-17T15:25:12.026Z,92533.75
2018-01-17T15:27:39.676Z,92533.03
2018-01-17T15:30:07.254Z,92516.66
2018-01-17T15:32:34.922Z,92539.16
2018-01-17T15:35:02.335Z,92545.61
2018-01-17T15:37:29.699Z,92535.73
2018-01-17T15:39:57.301Z,92540.03
2018-01-17T15:42:24.717Z,92530.87
2018-01-17T15:44:52.298Z,92531.31
2018-01-17T15:47:19.723Z,92529.95
2018-01-17T15:49:47.266Z,92533.29
2018-01-17T15:52:14.966Z,92508.67
2018-01-17T15:54:42.658Z,92536.02
2018-01-17T15:57:10.506Z,92547.13
2018-01-17T15:59:37.969Z,92550.59
2018-01-17T16:02:05.513Z,92549.36
2018-01-17T16:04:32.952Z,92530.82
2018-01-17T16:07:00.390Z,92543.34
2018-01-17T16:09:28.192Z,92546.98
2018-01-17T16:11:55.653Z,92519.95
2018-01-17T16:14:23.322Z,92519.02
2018-01-17T16:16:50.981Z,92525.45
2018-01-17T16:19:18.756Z,92540.95
2018-01-17T16:21:47.457Z,92530.39
2018-01-17T16:24:14.866Z,92526.00
2018-01-17T16:26:42.495Z,92508.46
2018-01-17T16:29:10.227Z,92484.16
2018-01-17T16:31:37.688Z,92473.16
2018-01-17T16:34:05.087Z,92464.79
2018-01-17T16:36:32.667Z,92466.95
2018-01-17T16:55:55.132Z,92473.84
2018-01-17T16:58:22.789Z,92458.03
2018-01-17T17:00:50.360Z,92449.97
2018-01-17T17:03:17.885Z,92422.41
2018-01-17T17:05:46.744Z,92425.16
2018-01-17T17:08:14.172Z,92437.31
2018-01-17T17:10:41.613Z,92444.33
2018-01-17T17:13:08.999Z,92444.39
2018-01-17T17:15:36.415Z,92445.04
2018-01-17T17:18:03.867Z,92431.17
2018-01-17T17:20:32.397Z,92417.53
2018-01-17T17:22:59.986Z,92401.48
2018-01-17T17:25:27.374Z,92404.78
2018-01-17T17:27:54.835Z,92405.70
2018-01-17T17:30:29.595Z,92393.27
2018-01-17T17:32:57.106Z,92351.61
2018-01-17T17:35:24.473Z,92379.59
2018-01-17T17:37:52.135Z,92397.06
2018-01-17T17:40:19.599Z,92404.75
2018-01-17T17:42:47.031Z,92407.16
2018-01-17T17:45:14.470Z,92414.75
2018-01-17T17:47:41.890Z,92443.50
2018-01-17T17:50:09.252Z,92515.94
2018-01-17T17:52:36.642Z,92550.28
2018-01-17T17:55:04.048Z,92560.61
2018-01-17T17:57:31.428Z,92546.39
2018-01-17T18:00:06.540Z,92559.48
2018-01-17T18:02:33.954Z,92568.23
2018-01-17T18:05:01.442Z,92587.87
2018-01-17T18:07:28.802Z,92589.65
2018-01-17T18:09:56.152Z,92612.70
2018-01-17T18:12:23.592Z,92608.59
2018-01-17T18:20:06.466Z,92660.03
2018-01-17T18:22:33.874Z,92698.06
2018-01-17T18:25:01.255Z,92703.28
2018-01-17T18:27:28.658Z,92717.64
2018-01-17T18:30:03.811Z,92699.46
2018-01-17T18:32:31.166Z,92724.05
2018-01-17T18:34:58.575Z,92721.11
2018-01-17T18:37:26.063Z,92732.88
2018-01-17T18:39:53.459Z,92734.50
2018-01-17T18:42:20.952Z,92734.12
2018-01-17T18:44:48.354Z,92738.67
2018-01-17T18:47:15.702Z,92733.96
2018-01-17T18:49:43.153Z,92729.43
2018-01-17T18:52:10.582Z,92727.49
2018-01-17T18:54:37.999Z,92728.20
2018-01-17T18:57:05.358Z,92719.20
2018-01-17T18:59:32.795Z,92721.18
2018-01-17T19:02:00.222Z,92726.62
2018-01-17T19:04:27.771Z,92726.44
2018-01-17T19:06:55.226Z,92730.34
2018-01-17T19:09:22.606Z,92724.64
2018-01-17T19:11:50.008Z,92736.73
2018-01-17T19:14:17.409Z,92735.64
2018-01-17T19:16:44.897Z,92720.37
2018-01-17T19:19:12.271Z,92716.09
2018-01-17T19:21:39.693Z,92714.43
2018-01-17T19:24:07.112Z,92705.58
2018-01-17T19:26:34.506Z,92713.08
2018-01-17T19:29:01.926Z,92715.87
2018-01-17T19:31:29.326Z,92728.12
2018-01-17T19:33:56.678Z,92759.80
2018-01-17T19:36:24.185Z,92764.62
2018-01-17T19:38:51.540Z,92786.26
2018-01-17T19:41:18.922Z,92786.59
2018-01-17T19:43:46.324Z,92789.64
2018-01-17T19:46:13.815Z,92791.06
2018-01-17T19:48:41.166Z,92816.55
2018-01-17T19:51:08.566Z,92782.41
2018-01-17T19:53:35.950Z,92820.91
2018-01-17T19:56:03.359Z,92816.02
2018-01-17T19:58:30.794Z,92810.66
2018-01-17T20:00:58.260Z,92826.76
2018-01-17T20:03:25.682Z,92829.70
2018-01-17T20:05:53.043Z,92826.76
2018-01-17T20:08:20.458Z,92829.53
2018-01-17T20:10:47.860Z,92827.07
2018-01-17T20:13:15.243Z,92812.79
2018-01-17T20:15:42.579Z,92818.09
2018-01-17T20:18:09.931Z,92827.28
2018-01-17T20:20:37.389Z,92842.52
2018-01-17T20:23:04.824Z,92840.75
2018-01-17T20:25:32.198Z,92848.02
2018-01-17T20:27:59.604Z,92857.67
2018-01-17T20:30:27.030Z,92875.77
2018-01-17T20:32:54.378Z,92864.81
2018-01-17T20:35:21.735Z,92876.66
2018-01-17T20:37:49.148Z,92905.94
2018-01-17T20:40:16.566Z,92898.91
2018-01-17T20:42:43.918Z,92918.03
2018-01-17T20:45:11.273Z,92930.77
2018-01-17T20:47:38.662Z,92922.16
2018-01-17T20:50:13.002Z,92933.43
2018-01-17T20:52:40.438Z,92932.69
2018-01-17T20:55:07.794Z,92937.54
2018-01-17T20:57:35.243Z,92934.16
2018-01-17T21:00:02.650Z,92929.30
2018-01-17T21:02:30.007Z,92946.81
2018-01-17T21:04:57.465Z,92944.03
2018-01-17T21:07:24.908Z,92949.61
2018-01-17T21:09:52.350Z,92962.14
2018-01-17T21:12:19.681Z,92969.41
2018-01-17T21:14:47.085Z,92989.08
2018-01-17T21:17:14.438Z,92995.84
2018-01-17T21:19:49.512Z,93015.09
2018-01-17T21:22:17.033Z,93036.92
2018-01-17T21:24:44.413Z,93029.98
2018-01-17T21:27:11.766Z,93040.88
2018-01-17T21:29:39.218Z,93044.78
2018-01-17T21:32:06.557Z,93042.52
2018-01-17T21:34:33.959Z,93037.21
2018-01-17T21:37:01.317Z,93038.17
2018-01-17T21:39:28.775Z,93030.77
2018-01-17T21:41:56.136Z,93021.35
2018-01-17T21:44:23.526Z,93024.06
2018-01-17T21:46:50.886Z,93041.52
2018-01-17T21:49:25.492Z,93047.81
2018-01-17T21:51:52.913Z,93048.36
2018-01-17T21:54:20.434Z,93054.23
2018-01-17T21:56:47.873Z,93047.70
2018-01-17T21:59:15.402Z,93054.67
2018-01-17T22:01:42.809Z,93037.98
2018-01-17T22:04:10.222Z,93046.22
2018-01-17T22:06:37.689Z,93049.61
2018-01-17T22:09:05.284Z,93051.30
2018-01-17T22:11:32.648Z,93056.37
2018-01-17T22:14:00.110Z,93041.72
2018-01-17T22:16:27.525Z,93039.14
2018-01-17T22:18:55.151Z,93045.19
2018-01-17T22:21:22.543Z,93060.44
2018-01-17T22:23:49.915Z,93048.27
2018-01-17T22:26:17.315Z,93058.50
2018-01-17T22:28:44.741Z,93057.98
2018-01-17T22:31:12.119Z,93062.33
2018-01-17T22:33:39.495Z,93059.01
2018-01-17T22:36:06.966Z,93067.63
2018-01-17T22:38:34.706Z,93060.43
2018-01-17T22:41:02.110Z,93062.19
2018-01-17T22:43:29.518Z,93045.41
2018-01-17T22:45:57.003Z,93053.87
2018-01-17T22:48:24.496Z,93063.50
2018-01-17T22:50:51.922Z,93051.66
2018-01-17T22:53:19.330Z,93045.11
2018-01-17T22:55:46.738Z,93050.70
2018-01-17T22:58:14.182Z,93046.73
2018-01-17T23:00:41.667Z,93054.50
2018-01-17T23:03:09.092Z,93054.88
2018-01-17T23:05:38.165Z,93060.03
2018-01-17T23:08:05.886Z,93054.94
2018-01-17T23:10:33.263Z,93052.50
2018-01-17T23:13:00.654Z,93054.66
2018-01-17T23:15:28.074Z,93063.87
2018-01-17T23:17:55.509Z,93060.33
2018-01-17T23:20:22.878Z,93072.52
2018-01-17T23:22:50.364Z,93073.56
2018-01-17T23:25:17.754Z,93074.58
2018-01-17T23:27:45.108Z,93072.93
2018-01-17T23:30:12.512Z,93089.28
2018-01-17T23:32:39.864Z,93097.61
2018-01-17T23:35:07.283Z,93090.45
2018-01-17T23:37:34.648Z,93090.53
2018-01-17T23:40:02.043Z,93081.48
2018-01-17T23:42:29.427Z,93090.58
2018-01-17T23:44:56.822Z,93093.02
2018-01-17T23:47:24.209Z,93101.94
2018-01-17T23:49:51.628Z,93105.39
2018-01-17T23:52:19.132Z,93094.12
2018-01-17T23:54:46.491Z,93094.78
2018-01-17T23:57:13.892Z,93101.47
2018-01-17T23:59:48.891Z,93094.19
